Flight Track Log - Related Links

Times and Time Zones

All times are in EST time to prevent confusion due to time zone crossing. See the SKW7367 flight status page for this flight to view local times or setup timezone preferences in your user account.

Time Position Orientation Groundspeed Altitude Reporting Facility
EST Latitude Longitude Course Direction KTS MPH feet Rate Location/Type
Fri 04:07:00 PM 42.2214 -83.3581 337° Northwest 145 167 1,400  Level Cleveland Center
Fri 04:08:02 PM 42.2692 -83.3367 18° North 214 246 4,300 2,486 Climbing Cleveland Center
Fri 04:08:10 PM 42.2706 -83.3378 329° Northwest 194 223 4,300 3,086 Level Cleveland Center
Fri 04:09:12 PM 42.3408 -83.3114 16° North 237 273 7,900 3,222 Climbing Cleveland Center
Fri 04:09:58 PM 42.4014 -83.2789 22° Northeast 292 336 10,100 2,516 Climbing Cleveland Center
Fri 04:10:00 PM 42.6321 -83.3825 North  Level Estimated
Fri 04:10:14 PM 42.4125 -83.2722 24° Northeast 267 307 10,500  Level Cleveland Center
Fri 04:11:00 PM 42.7370 -83.3898 313° West  Level Estimated
Fri 04:11:16 PM 42.5022 -83.2767 358° North 300 345 12,800  Level Cleveland Center
Fri 04:12:00 PM 42.8338 -83.4455 337° Northwest  Level FlightAware Approximate
Fri 04:12:18 PM 42.5964 -83.2983 350° North 338 389 13,600  Level Cleveland Center
Fri 04:13:21 PM 42.6894 -83.3119 354° North 340 391 17,800 2,592 Climbing Cleveland Center
Fri 04:14:23 PM 42.7789 -83.3194 356° North 325 374 19,000 581 Climbing Cleveland Center
Fri 04:15:25 PM 42.8778 -83.3303 355° North 350 403 19,000  Level Cleveland Center
Fri 04:16:27 PM 42.9936 -83.3411 356° North 350 403 19,000  Level Cleveland Center
Fri 04:17:29 PM 43.0856 -83.3519 355° North 338 389 19,000  Level Cleveland Center
Fri 04:18:31 PM 43.1764 -83.3603 356° North 329 379 19,000  Level Cleveland Center
Fri 04:19:33 PM 43.2656 -83.3683 356° North 323 372 19,000  Level Cleveland Center
Fri 04:20:36 PM 43.3569 -83.3775 356° North 329 379 19,000  Level Cleveland Center
Fri 04:21:37 PM 43.4494 -83.3864 356° North 333 383 19,000  Level Cleveland Center
Fri 04:22:39 PM 43.5600 -83.3997 355° North 333 383 19,000  Level Cleveland Center
Fri 04:23:41 PM 43.6519 -83.4092 356° North 332 382 19,000  Level Cleveland Center
Fri 04:24:27 PM 43.7097 -83.4158 355° North 332 382 19,000  Level Minneapolis Center
Fri 04:25:29 PM 43.8169 -83.4264 356° North 327 376 19,000  Level Minneapolis Center
Fri 04:26:31 PM 43.9067 -83.4353 356° North 325 374 19,000  Level Minneapolis Center
Fri 04:27:33 PM 44.0017 -83.4447 356° North 319 367 19,000  Level Minneapolis Center
Fri 04:28:35 PM 44.0886 -83.4542 356° North 318 366 19,000  Level Minneapolis Center
Fri 04:29:37 PM 44.1828 -83.4639 356° North 318 366 19,000 -435 Level Minneapolis Center
Fri 04:30:39 PM 44.2708 -83.4772 354° North 320 368 18,100 -1,452 Descending Minneapolis Center
Fri 04:31:41 PM 44.3614 -83.4992 350° North 309 356 16,000 -2,146 Descending Minneapolis Center
Fri 04:32:42 PM 44.4389 -83.5225 348° North 292 336 13,700 -2,488 Descending Minneapolis Center
Fri 04:33:44 PM 44.5186 -83.5536 344° North 279 321 10,900 -2,177 Descending Minneapolis Center
Fri 04:34:46 PM 44.5894 -83.5594 357° North 261 300 9,200 -2,226 Descending Minneapolis Center
Fri 04:35:48 PM 44.6603 -83.5603 360° North 240 276 6,300 -2,468 Descending Minneapolis Center
Fri 04:36:50 PM 44.7228 -83.5597 360° North 230 265 4,100 -1,548 Descending Minneapolis Center
Fri 04:37:52 PM 44.7881 -83.5597 360° North 223 257 3,100 -624 Descending Minneapolis Center
Fri 04:38:55 PM 44.8444 -83.5592 360° North 194 223 2,800 -144 Descending Minneapolis Center
Fri 04:39:57 PM 44.8975 -83.5589 360° North 193 222 2,800  Level Minneapolis Center
Fri 04:40:59 PM 44.9525 -83.5589 360° North 188 216 2,800 -192 Level Minneapolis Center
Fri 04:42:02 PM 44.9908 -83.5608 358° North 150 173 2,400 -624 Descending Minneapolis Center
Fri 04:43:04 PM 45.0289 -83.5611 360° North 133 153 1,500 -774 Descending Minneapolis Center
Fri 04:44:06 PM 45.0628 -83.5614 360° North 124 143 800 -677 Descending Minneapolis Center

Login

Don't have an account? Register now (free) for customized features, flight alerts, and more!